Terminal Aerodrome Forecast
Issued by NWS

Home | Current Version | Previous Version | Text Only | Print | Product List | Glossary On
Versions: 1 2 3 4 5 6 7 8 9 10 11 12 13 14 15 16 17
000
FTUS44 KCRP 032323
TAFALI
TAF
KALI 032323Z 0400/0424 12010KT P6SM FEW050
     FM040900 VRB03KT 6SM BR FEW018
      TEMPO 0410/0413 BKN015
     FM041300 14006KT P6SM SCT020
     FM041700 16012KT P6SM SCT040=

USA.gov is the U.S. government's official web portal to all federal, state and local government web resources and services.